KAFW/AFW METAR and TAF weather

Enter ICAO airport designator
Station Type Date Time Source
KAFW METAR 2020/01/19 16:53 UTC NOAA

KAFW 191653Z 03003KT 10SM FEW250 08/M06 A3061 RMK AO2 SLP372 T00781056


Station Type Date Time Source
KAFW Decoded METAR 2020/01/19 16:53 UTC NOAA

FORT WORTH ALLIANCE AIRPORT, TX, United States (KAFW) 32-59N 097-19W 233M
Jan 19, 2020 - 11:53 AM EST / 2020.01.19 1653 UTC
Wind: from the NNE (030 degrees) at 3 MPH (3 KT):0
Visibility: 10 mile(s):0
Sky conditions: mostly clear
Temperature: 46.0 F (7.8 C)
Dew Point: 21.9 F (-5.6 C)
Relative Humidity: 38%
Pressure (altimeter): 30.61 in. Hg (1036 hPa)
ob: KAFW 191653Z 03003KT 10SM FEW250 08/M06 A3061 RMK AO2 SLP372 T00781056
cycle: 17

Station Type Date Time Source
KAFW TAF 2020/01/19 18:27 UTC NOAA

TAF KAFW 191724Z 1918/2018 01007KT P6SM SKC
FM200000 34005KT P6SM SCT250
FM201600 10004KT P6SM SKC

Example: see airport list